Grayling, MI

06:01 PM EST on December 17, 2014 (GMT -0500)
Grayling | Change Station
CLOSE
Current Station
Airport
Location: Grayling,
Elevation: 1158 ft
Nearby Weather Stations
Aktuella råd: Special Statement Aktuellt meddelande: Record Report

Elev 1158 ft 44.68 °N, 84.73 °W | Updated 6 minutes ago

Snö
Snö
28 °F
Feels Like 20 °F
N
9
Vind Växlande Vind from V/NV

Idag
High -- | Low -- °F
--% Chance of Precip.
Yesterday
High -- | Low -- °F
Precip. -- tum
8:10 AM 4:59 PM
Fjärde kvarteret, 19% visible
Lufttryck 30.01 tum
Sikt 2.5 miles
Molnigt Mestadels molnigt 1300 ft
Molnigt 2000 ft
Vindavkylning 20 °F
Daggpunkt 26 °F
Luftfuktighet 92%
Rainfall 0.00 tum
Snow Depth Not available.
UV 0 out of 12
Pollen .10 out of 12
Air Quality Not available.
Flu Activity Not available.
METAR KGOV 172255Z AUTO 29008KT 2 1/2SM -SN BKN013 OVC020 M02/M03 A3001 RMK AO2 T10211033

More Conditions Fewer Conditions

Lufttryck 30.01 tum
Sikt 2.5 miles
Molnigt Mestadels molnigt 1300 ft
Molnigt 2000 ft
Vindavkylning 20 °F
Daggpunkt 26 °F
Luftfuktighet 92%
Rainfall 0.00 tum
Snow Depth Not available.
UV 0 out of 12
Pollen .10 out of 12
Air Quality Not available.
Flu Activity Not available.
METAR KGOV 172255Z AUTO 29008KT 2 1/2SM -SN BKN013 OVC020 M02/M03 A3001 RMK AO2 T10211033

More Conditions Fewer Conditions

Nowcast | as of 6:00 PM EST on December 17, 2014

At 7 PM...frequent snow showers. Temperature 26. Northwest winds 10 mph. At 9 PM...frequent snow showers. Temperature 25. Northwest winds 10 mph. At 11 PM...numerous snow showers. Temperature 24. Northwest winds 9 mph with gusts to 20 mph. At 1 am...cloudy. Scattered snow showers. Temperature 23. Northwest winds 8 mph with gusts to 20 mph.

×

10-Day Weather Forecast

Almanac

Astronomi

Dec. 17, 2014 Rise Set
Actual Time
Civil Twilight
Nautical Twilight
Astronomical Twilight
Månen
Length Of Visible Light
Dagens längd
Tomorrow will be .
, % of the Moon is Illuminated

Today's Extremes

State Highs State Lows

Community

WunderPhotos

Upload Photos

1,778,819 photos uploaded!

WunderBlogs® & News

Nearby

Air Quality

  Air Quality AQ Index Pollutant
Not available.

Snödjup

Station Depth Elevation

Earthquake Activity

Stad Distance Mag. Time & Date
Minimum magnitude displayed is 2.5.

Coastal Water Temperatures

Plats Temperatur

Nearby Weather Stations